sensor_id;sensor_type;location;lat;lon;timestamp;pressure;altitude;pressure_sealevel;temperature;humidity
64019;BME280;66942;52.138;5.216;2023-04-19T00:02:02;102839.00000000001;;;16.36;44.23
64019;BME280;66942;52.138;5.216;2023-04-19T00:03:38;102836.99999999999;;;16.25;44.66
64019;BME280;66942;52.138;5.216;2023-04-19T00:05:14;102838.00000000001;;;16.36;44.46
64019;BME280;66942;52.138;5.216;2023-04-19T00:08:27;102833.99999999999;;;15.92;45.42
64019;BME280;66942;52.138;5.216;2023-04-19T00:10:05;102843.0;;;16.29;44.66
64019;BME280;66942;52.138;5.216;2023-04-19T00:11:42;102838.00000000001;;;16.09;45.1
64019;BME280;66942;52.138;5.216;2023-04-19T00:16:30;102834.99999999999;;;16.04;45.76
64019;BME280;66942;52.138;5.216;2023-04-19T00:18:07;102834.99999999999;;;16.11;45.39
64019;BME280;66942;52.138;5.216;2023-04-19T00:19:43;102833.99999999999;;;16.25;45.15
64019;BME280;66942;52.138;5.216;2023-04-19T00:22:55;102839.00000000001;;;16.21;45.38
64019;BME280;66942;52.138;5.216;2023-04-19T00:24:31;102834.99999999999;;;16.12;45.33
64019;BME280;66942;52.138;5.216;2023-04-19T00:26:07;102841.00000000001;;;16.02;46.19
64019;BME280;66942;52.138;5.216;2023-04-19T00:29:19;102840.00000000001;;;15.94;46.09
64019;BME280;66942;52.138;5.216;2023-04-19T00:30:56;102842.0;;;15.87;46.36
64019;BME280;66942;52.138;5.216;2023-04-19T00:32:32;102833.99999999999;;;15.78;46.38
64019;BME280;66942;52.138;5.216;2023-04-19T00:34:09;102834.99999999999;;;15.62;47.1
64019;BME280;66942;52.138;5.216;2023-04-19T00:37:21;102833.0;;;15.8;46.55
64019;BME280;66942;52.138;5.216;2023-04-19T00:38:58;102834.99999999999;;;15.62;46.81
64019;BME280;66942;52.138;5.216;2023-04-19T00:40:35;102834.99999999999;;;15.77;46.41
64019;BME280;66942;52.138;5.216;2023-04-19T00:43:47;102829.0;;;15.82;46.39
64019;BME280;66942;52.138;5.216;2023-04-19T00:45:24;102832.0;;;15.42;47.09
64019;BME280;66942;52.138;5.216;2023-04-19T00:47:01;102829.0;;;15.3;47.77
64019;BME280;66942;52.138;5.216;2023-04-19T00:50:13;102827.0;;;15.43;47.39
64019;BME280;66942;52.138;5.216;2023-04-19T00:51:49;102825.0;;;15.49;47.38
64019;BME280;66942;52.138;5.216;2023-04-19T00:53:26;102824.0;;;15.43;47.53
64019;BME280;66942;52.138;5.216;2023-04-19T00:56:39;102819.0;;;15.49;47.28
64019;BME280;66942;52.138;5.216;2023-04-19T00:58:15;102820.0;;;15.38;47.73
64019;BME280;66942;52.138;5.216;2023-04-19T00:59:53;102827.0;;;15.36;47.61
64019;BME280;66942;52.138;5.216;2023-04-19T01:01:30;102821.0;;;15.25;48.0
64019;BME280;66942;52.138;5.216;2023-04-19T01:04:42;102823.0;;;15.28;48.01
64019;BME280;66942;52.138;5.216;2023-04-19T01:06:18;102821.0;;;15.44;47.48
64019;BME280;66942;52.138;5.216;2023-04-19T01:07:54;102818.0;;;15.11;48.03
64019;BME280;66942;52.138;5.216;2023-04-19T01:11:06;102817.0;;;15.35;47.63
64019;BME280;66942;52.138;5.216;2023-04-19T01:12:43;102821.0;;;15.53;47.28
64019;BME280;66942;52.138;5.216;2023-04-19T01:14:18;102816.00000000001;;;15.43;47.5
64019;BME280;66942;52.138;5.216;2023-04-19T01:17:33;102817.0;;;15.36;47.86
64019;BME280;66942;52.138;5.216;2023-04-19T01:19:09;102811.99999999999;;;15.43;47.71
64019;BME280;66942;52.138;5.216;2023-04-19T01:20:45;102817.0;;;15.44;47.55
64019;BME280;66942;52.138;5.216;2023-04-19T01:22:21;102816.00000000001;;;15.26;48.2
64019;BME280;66942;52.138;5.216;2023-04-19T01:25:34;102814.00000000001;;;15.31;48.03
64019;BME280;66942;52.138;5.216;2023-04-19T01:27:10;102811.99999999999;;;15.13;48.51
64019;BME280;66942;52.138;5.216;2023-04-19T01:28:46;102814.00000000001;;;15.28;48.3
64019;BME280;66942;52.138;5.216;2023-04-19T01:32:00;102819.0;;;15.1;48.55
64019;BME280;66942;52.138;5.216;2023-04-19T01:33:36;102817.0;;;15.44;47.96
64019;BME280;66942;52.138;5.216;2023-04-19T01:35:12;102817.0;;;15.3;48.22
64019;BME280;66942;52.138;5.216;2023-04-19T01:38:24;102816.00000000001;;;15.29;48.3
64019;BME280;66942;52.138;5.216;2023-04-19T01:40:01;102814.00000000001;;;15.41;48.2
64019;BME280;66942;52.138;5.216;2023-04-19T01:41:37;102817.0;;;15.29;48.5
64019;BME280;66942;52.138;5.216;2023-04-19T01:43:15;102814.00000000001;;;15.29;48.46
64019;BME280;66942;52.138;5.216;2023-04-19T01:46:28;102814.00000000001;;;15.33;48.57
64019;BME280;66942;52.138;5.216;2023-04-19T01:48:05;102811.99999999999;;;15.44;48.24
64019;BME280;66942;52.138;5.216;2023-04-19T01:49:41;102808.0;;;15.48;48.34
64019;BME280;66942;52.138;5.216;2023-04-19T01:52:54;102811.99999999999;;;15.51;48.23
64019;BME280;66942;52.138;5.216;2023-04-19T01:54:30;102813.00000000001;;;15.62;48.03
64019;BME280;66942;52.138;5.216;2023-04-19T01:56:06;102815.00000000001;;;15.32;48.87
64019;BME280;66942;52.138;5.216;2023-04-19T01:59:19;102814.00000000001;;;15.36;48.64
64019;BME280;66942;52.138;5.216;2023-04-19T02:00:55;102814.00000000001;;;15.5;48.69
64019;BME280;66942;52.138;5.216;2023-04-19T02:02:31;102814.00000000001;;;15.43;48.46
64019;BME280;66942;52.138;5.216;2023-04-19T02:04:08;102815.00000000001;;;15.77;47.98
64019;BME280;66942;52.138;5.216;2023-04-19T02:07:21;102817.0;;;15.77;48.25
64019;BME280;66942;52.138;5.216;2023-04-19T02:08:57;102811.99999999999;;;15.52;48.78
64019;BME280;66942;52.138;5.216;2023-04-19T02:10:33;102809.99999999999;;;15.84;48.0
64019;BME280;66942;52.138;5.216;2023-04-19T02:13:46;102808.0;;;15.84;48.05
64019;BME280;66942;52.138;5.216;2023-04-19T02:15:22;102811.99999999999;;;15.78;48.31
64019;BME280;66942;52.138;5.216;2023-04-19T02:16:58;102809.99999999999;;;15.77;48.38
64019;BME280;66942;52.138;5.216;2023-04-19T02:20:10;102809.99999999999;;;15.9;48.37
64019;BME280;66942;52.138;5.216;2023-04-19T02:21:46;102807.0;;;16.02;47.9
64019;BME280;66942;52.138;5.216;2023-04-19T02:23:22;102807.0;;;15.87;48.14
64019;BME280;66942;52.138;5.216;2023-04-19T02:26:36;102803.0;;;16.04;47.99
64019;BME280;66942;52.138;5.216;2023-04-19T02:28:12;102804.0;;;16.05;48.14
64019;BME280;66942;52.138;5.216;2023-04-19T02:29:48;102803.0;;;16.09;48.15
64019;BME280;66942;52.138;5.216;2023-04-19T02:31:24;102808.99999999999;;;15.98;48.1
64019;BME280;66942;52.138;5.216;2023-04-19T02:34:36;102811.99999999999;;;15.92;48.31
64019;BME280;66942;52.138;5.216;2023-04-19T02:36:12;102813.00000000001;;;15.92;48.19
64019;BME280;66942;52.138;5.216;2023-04-19T02:37:48;102803.0;;;16.12;47.8
64019;BME280;66942;52.138;5.216;2023-04-19T02:41:02;102808.0;;;16.2;47.59
64019;BME280;66942;52.138;5.216;2023-04-19T02:42:38;102809.99999999999;;;16.16;48.33
64019;BME280;66942;52.138;5.216;2023-04-19T02:44:14;102808.99999999999;;;16.22;48.14
64019;BME280;66942;52.138;5.216;2023-04-19T02:47:26;102811.99999999999;;;16.25;47.6
64019;BME280;66942;52.138;5.216;2023-04-19T02:49:02;102811.99999999999;;;16.09;47.71
64019;BME280;66942;52.138;5.216;2023-04-19T02:50:38;102814.00000000001;;;16.29;47.79
64019;BME280;66942;52.138;5.216;2023-04-19T02:52:15;102816.00000000001;;;16.11;48.03
64019;BME280;66942;52.138;5.216;2023-04-19T02:55:27;102816.00000000001;;;16.34;47.49
64019;BME280;66942;52.138;5.216;2023-04-19T02:57:03;102814.00000000001;;;16.11;48.24
64019;BME280;66942;52.138;5.216;2023-04-19T02:58:39;102814.00000000001;;;16.32;47.76
64019;BME280;66942;52.138;5.216;2023-04-19T03:01:52;102808.99999999999;;;16.47;46.97
64019;BME280;66942;52.138;5.216;2023-04-19T03:03:28;102813.00000000001;;;16.13;47.68
64019;BME280;66942;52.138;5.216;2023-04-19T03:05:05;102816.00000000001;;;16.38;47.3
64019;BME280;66942;52.138;5.216;2023-04-19T03:08:18;102815.00000000001;;;16.59;46.76
64019;BME280;66942;52.138;5.216;2023-04-19T03:09:54;102814.00000000001;;;16.2;47.6
64019;BME280;66942;52.138;5.216;2023-04-19T03:11:30;102811.99999999999;;;15.99;47.73
64019;BME280;66942;52.138;5.216;2023-04-19T03:14:42;102807.0;;;16.38;47.39
64019;BME280;66942;52.138;5.216;2023-04-19T03:16:18;102803.0;;;16.02;47.84
64019;BME280;66942;52.138;5.216;2023-04-19T03:17:54;102804.0;;;15.76;48.65
64019;BME280;66942;52.138;5.216;2023-04-19T03:19:31;102805.0;;;16.38;47.21
64019;BME280;66942;52.138;5.216;2023-04-19T03:22:43;102806.0;;;16.59;46.66
64019;BME280;66942;52.138;5.216;2023-04-19T03:24:19;102808.0;;;15.75;48.59
64019;BME280;66942;52.138;5.216;2023-04-19T03:26:02;102803.0;;;16.5;46.78
64019;BME280;66942;52.138;5.216;2023-04-19T03:29:15;102806.0;;;16.31;47.27
64019;BME280;66942;52.138;5.216;2023-04-19T03:30:51;102805.0;;;16.27;47.08
64019;BME280;66942;52.138;5.216;2023-04-19T03:32:28;102805.0;;;16.05;47.7
64019;BME280;66942;52.138;5.216;2023-04-19T03:34:04;102804.0;;;16.57;47.03
64019;BME280;66942;52.138;5.216;2023-04-19T03:37:16;102808.99999999999;;;16.66;46.62
64019;BME280;66942;52.138;5.216;2023-04-19T03:38:52;102799.0;;;16.79;46.43
64019;BME280;66942;52.138;5.216;2023-04-19T03:40:29;102803.0;;;16.45;46.79
64019;BME280;66942;52.138;5.216;2023-04-19T03:43:41;102809.99999999999;;;16.21;47.18
64019;BME280;66942;52.138;5.216;2023-04-19T03:45:17;102804.0;;;16.18;47.26
64019;BME280;66942;52.138;5.216;2023-04-19T03:46:54;102800.0;;;16.63;46.41
64019;BME280;66942;52.138;5.216;2023-04-19T03:50:07;102804.0;;;16.63;46.46
64019;BME280;66942;52.138;5.216;2023-04-19T03:51:43;102807.0;;;16.68;46.07
64019;BME280;66942;52.138;5.216;2023-04-19T03:53:19;102808.0;;;16.9;45.78
64019;BME280;66942;52.138;5.216;2023-04-19T03:56:31;102802.0;;;16.66;46.06
64019;BME280;66942;52.138;5.216;2023-04-19T03:58:07;102805.0;;;16.68;46.08
64019;BME280;66942;52.138;5.216;2023-04-19T03:59:43;102797.0;;;16.48;46.8
64019;BME280;66942;52.138;5.216;2023-04-19T04:01:21;102805.0;;;16.32;46.63
64019;BME280;66942;52.138;5.216;2023-04-19T04:04:33;102803.0;;;16.41;46.66
64019;BME280;66942;52.138;5.216;2023-04-19T04:06:09;102802.0;;;16.52;46.55
64019;BME280;66942;52.138;5.216;2023-04-19T04:07:45;102803.0;;;15.95;47.58
64019;BME280;66942;52.138;5.216;2023-04-19T04:10:57;102803.0;;;16.72;45.83
64019;BME280;66942;52.138;5.216;2023-04-19T04:12:33;102801.0;;;16.09;46.66
64019;BME280;66942;52.138;5.216;2023-04-19T04:14:10;102802.0;;;16.46;46.1
64019;BME280;66942;52.138;5.216;2023-04-19T04:17:22;102808.0;;;16.29;46.16
64019;BME280;66942;52.138;5.216;2023-04-19T04:18:58;102804.0;;;16.13;46.35
64019;BME280;66942;52.138;5.216;2023-04-19T04:20:34;102805.0;;;16.2;46.17
64019;BME280;66942;52.138;5.216;2023-04-19T04:22:10;102802.0;;;16.45;45.72
64019;BME280;66942;52.138;5.216;2023-04-19T04:25:22;102805.0;;;16.43;45.74
64019;BME280;66942;52.138;5.216;2023-04-19T04:26:58;102801.0;;;16.43;45.59
64019;BME280;66942;52.138;5.216;2023-04-19T04:28:35;102807.0;;;16.43;45.4
64019;BME280;66942;52.138;5.216;2023-04-19T04:31:47;102811.99999999999;;;16.2;46.06
64019;BME280;66942;52.138;5.216;2023-04-19T04:33:23;102805.0;;;15.84;46.48
64019;BME280;66942;52.138;5.216;2023-04-19T04:34:59;102800.0;;;15.37;47.15
64019;BME280;66942;52.138;5.216;2023-04-19T04:38:11;102802.0;;;15.87;46.8
64019;BME280;66942;52.138;5.216;2023-04-19T04:39:47;102802.0;;;16.29;45.65
64019;BME280;66942;52.138;5.216;2023-04-19T04:41:22;102802.0;;;16.29;45.25
64019;BME280;66942;52.138;5.216;2023-04-19T04:44:33;102800.0;;;16.18;45.56
64019;BME280;66942;52.138;5.216;2023-04-19T04:46:09;102803.0;;;16.43;45.08
64019;BME280;66942;52.138;5.216;2023-04-19T04:47:45;102807.0;;;16.34;45.43
64019;BME280;66942;52.138;5.216;2023-04-19T04:50:58;102808.99999999999;;;16.16;46.1
64019;BME280;66942;52.138;5.216;2023-04-19T04:52:33;102811.99999999999;;;15.89;46.34
64019;BME280;66942;52.138;5.216;2023-04-19T04:54:09;102803.0;;;15.81;46.47
64019;BME280;66942;52.138;5.216;2023-04-19T04:55:44;102806.0;;;15.95;46.05
64019;BME280;66942;52.138;5.216;2023-04-19T04:58:57;102806.0;;;15.98;45.92
64019;BME280;66942;52.138;5.216;2023-04-19T05:00:32;102803.0;;;15.68;46.36
64019;BME280;66942;52.138;5.216;2023-04-19T05:02:08;102805.0;;;15.84;46.64
64019;BME280;66942;52.138;5.216;2023-04-19T05:05:20;102807.0;;;15.76;46.63
64019;BME280;66942;52.138;5.216;2023-04-19T05:06:55;102809.99999999999;;;15.66;46.92
64019;BME280;66942;52.138;5.216;2023-04-19T05:08:31;102809.99999999999;;;15.87;46.37
64019;BME280;66942;52.138;5.216;2023-04-19T05:11:43;102813.00000000001;;;15.96;46.08
64019;BME280;66942;52.138;5.216;2023-04-19T05:13:20;102811.99999999999;;;15.87;46.4
64019;BME280;66942;52.138;5.216;2023-04-19T05:14:56;102807.0;;;15.84;46.32
64019;BME280;66942;52.138;5.216;2023-04-19T05:18:08;102813.00000000001;;;15.79;46.54
64019;BME280;66942;52.138;5.216;2023-04-19T05:19:44;102817.0;;;15.67;46.74
64019;BME280;66942;52.138;5.216;2023-04-19T05:21:20;102815.00000000001;;;15.72;47.07
64019;BME280;66942;52.138;5.216;2023-04-19T05:22:57;102817.0;;;15.55;47.44
64019;BME280;66942;52.138;5.216;2023-04-19T05:26:10;102818.0;;;15.5;47.28
64019;BME280;66942;52.138;5.216;2023-04-19T05:27:46;102819.0;;;15.58;47.24
64019;BME280;66942;52.138;5.216;2023-04-19T05:29:22;102820.0;;;15.53;47.7
64019;BME280;66942;52.138;5.216;2023-04-19T05:32:34;102818.0;;;15.33;47.46
64019;BME280;66942;52.138;5.216;2023-04-19T05:34:10;102822.0;;;15.55;47.19
64019;BME280;66942;52.138;5.216;2023-04-19T05:35:46;102818.0;;;15.62;46.89
64019;BME280;66942;52.138;5.216;2023-04-19T05:38:59;102819.0;;;15.42;47.21
64019;BME280;66942;52.138;5.216;2023-04-19T05:40:35;102820.0;;;15.6;46.95
64019;BME280;66942;52.138;5.216;2023-04-19T05:42:11;102820.0;;;15.48;46.62
64019;BME280;66942;52.138;5.216;2023-04-19T05:43:47;102817.0;;;15.48;46.61
64019;BME280;66942;52.138;5.216;2023-04-19T05:47:01;102817.0;;;15.62;46.52
64019;BME280;66942;52.138;5.216;2023-04-19T05:48:37;102816.00000000001;;;15.04;47.73
64019;BME280;66942;52.138;5.216;2023-04-19T05:50:13;102814.00000000001;;;15.52;46.77
64019;BME280;66942;52.138;5.216;2023-04-19T05:53:26;102813.00000000001;;;15.52;46.88
64019;BME280;66942;52.138;5.216;2023-04-19T05:55:03;102815.00000000001;;;15.24;46.71
64019;BME280;66942;52.138;5.216;2023-04-19T05:56:40;102815.00000000001;;;15.17;46.84
64019;BME280;66942;52.138;5.216;2023-04-19T05:59:53;102814.00000000001;;;15.29;46.86
64019;BME280;66942;52.138;5.216;2023-04-19T06:01:29;102817.0;;;15.33;46.16
64019;BME280;66942;52.138;5.216;2023-04-19T06:03:06;102811.99999999999;;;15.12;46.26
64019;BME280;66942;52.138;5.216;2023-04-19T06:04:44;102813.00000000001;;;15.67;45.68
64019;BME280;66942;52.138;5.216;2023-04-19T06:07:58;102818.0;;;15.52;45.49
64019;BME280;66942;52.138;5.216;2023-04-19T06:09:34;102817.0;;;15.34;45.78
64019;BME280;66942;52.138;5.216;2023-04-19T06:11:10;102814.00000000001;;;15.62;45.41
64019;BME280;66942;52.138;5.216;2023-04-19T06:14:23;102817.0;;;15.49;44.57
64019;BME280;66942;52.138;5.216;2023-04-19T06:16:00;102820.0;;;16.02;44.31
64019;BME280;66942;52.138;5.216;2023-04-19T06:17:37;102820.0;;;15.53;44.26
64019;BME280;66942;52.138;5.216;2023-04-19T06:20:49;102821.0;;;15.63;43.95
64019;BME280;66942;52.138;5.216;2023-04-19T06:22:27;102820.0;;;15.65;44.46
64019;BME280;66942;52.138;5.216;2023-04-19T06:24:05;102822.0;;;15.66;43.81
64019;BME280;66942;52.138;5.216;2023-04-19T06:25:41;102818.0;;;15.68;44.18
64019;BME280;66942;52.138;5.216;2023-04-19T06:28:54;102817.0;;;15.68;44.07
64019;BME280;66942;52.138;5.216;2023-04-19T06:30:30;102820.0;;;15.63;43.83
64019;BME280;66942;52.138;5.216;2023-04-19T06:32:05;102817.0;;;15.87;43.6
64019;BME280;66942;52.138;5.216;2023-04-19T06:35:18;102823.0;;;15.53;43.5
64019;BME280;66942;52.138;5.216;2023-04-19T06:36:54;102823.0;;;15.65;43.69
64019;BME280;66942;52.138;5.216;2023-04-19T06:38:31;102819.0;;;15.59;43.74
64019;BME280;66942;52.138;5.216;2023-04-19T06:41:44;102817.0;;;15.88;43.19
64019;BME280;66942;52.138;5.216;2023-04-19T06:43:20;102817.0;;;15.55;43.05
64019;BME280;66942;52.138;5.216;2023-04-19T06:44:56;102808.0;;;15.95;42.69
64019;BME280;66942;52.138;5.216;2023-04-19T06:46:32;102820.0;;;16.2;42.33
64019;BME280;66942;52.138;5.216;2023-04-19T06:49:44;102814.00000000001;;;15.41;42.95
64019;BME280;66942;52.138;5.216;2023-04-19T06:51:20;102811.99999999999;;;15.44;42.34
64019;BME280;66942;52.138;5.216;2023-04-19T06:52:57;102809.99999999999;;;16.0;41.52
64019;BME280;66942;52.138;5.216;2023-04-19T06:56:09;102809.99999999999;;;16.43;41.3
64019;BME280;66942;52.138;5.216;2023-04-19T06:57:45;102807.0;;;16.04;40.72
64019;BME280;66942;52.138;5.216;2023-04-19T06:59:21;102815.00000000001;;;16.64;40.39
64019;BME280;66942;52.138;5.216;2023-04-19T07:02:35;102809.99999999999;;;16.8;39.29
64019;BME280;66942;52.138;5.216;2023-04-19T07:04:11;102817.0;;;16.73;39.71
64019;BME280;66942;52.138;5.216;2023-04-19T07:05:48;102817.0;;;16.63;39.58
64019;BME280;66942;52.138;5.216;2023-04-19T07:09:00;102818.0;;;16.34;37.87
64019;BME280;66942;52.138;5.216;2023-04-19T07:10:37;102818.0;;;17.2;37.04
64019;BME280;66942;52.138;5.216;2023-04-19T07:12:13;102817.0;;;16.87;36.22
64019;BME280;66942;52.138;5.216;2023-04-19T07:13:50;102817.0;;;17.0;36.35
64019;BME280;66942;52.138;5.216;2023-04-19T07:17:03;102816.00000000001;;;16.97;35.36
64019;BME280;66942;52.138;5.216;2023-04-19T07:18:39;102820.0;;;16.93;34.78
64019;BME280;66942;52.138;5.216;2023-04-19T07:20:15;102819.0;;;16.95;33.85
64019;BME280;66942;52.138;5.216;2023-04-19T07:23:27;102821.0;;;17.52;34.01
64019;BME280;66942;52.138;5.216;2023-04-19T07:25:04;102817.0;;;17.09;32.74
64019;BME280;66942;52.138;5.216;2023-04-19T07:26:41;102822.0;;;17.04;33.49
64019;BME280;66942;52.138;5.216;2023-04-19T07:29:53;102815.00000000001;;;16.88;32.71
64019;BME280;66942;52.138;5.216;2023-04-19T07:31:29;102818.0;;;16.71;31.82
64019;BME280;66942;52.138;5.216;2023-04-19T07:33:06;102833.0;;;16.95;31.73
64019;BME280;66942;52.138;5.216;2023-04-19T07:34:42;102822.0;;;17.45;31.8
64019;BME280;66942;52.138;5.216;2023-04-19T07:37:54;102822.0;;;16.95;31.54
64019;BME280;66942;52.138;5.216;2023-04-19T07:39:31;102825.0;;;17.21;31.73
64019;BME280;66942;52.138;5.216;2023-04-19T07:41:07;102826.0;;;17.47;31.25
64019;BME280;66942;52.138;5.216;2023-04-19T07:44:19;102830.0;;;17.34;30.76
64019;BME280;66942;52.138;5.216;2023-04-19T07:45:55;102825.0;;;17.87;31.29
64019;BME280;66942;52.138;5.216;2023-04-19T07:47:31;102823.0;;;17.53;30.93
64019;BME280;66942;52.138;5.216;2023-04-19T07:50:43;102817.0;;;18.34;30.66
64019;BME280;66942;52.138;5.216;2023-04-19T07:52:19;102821.0;;;18.47;30.67
64019;BME280;66942;52.138;5.216;2023-04-19T07:53:56;102823.0;;;18.75;30.36
64019;BME280;66942;52.138;5.216;2023-04-19T07:57:08;102821.0;;;18.18;30.08
64019;BME280;66942;52.138;5.216;2023-04-19T07:58:44;102822.0;;;18.16;29.0
64019;BME280;66942;52.138;5.216;2023-04-19T08:00:20;102818.0;;;18.64;28.36
64019;BME280;66942;52.138;5.216;2023-04-19T08:01:56;102816.00000000001;;;19.05;29.19
64019;BME280;66942;52.138;5.216;2023-04-19T08:05:10;102823.0;;;19.2;28.28
64019;BME280;66942;52.138;5.216;2023-04-19T08:06:46;102822.0;;;19.52;27.38
64019;BME280;66942;52.138;5.216;2023-04-19T08:08:23;102820.0;;;19.98;26.83
64019;BME280;66942;52.138;5.216;2023-04-19T08:11:35;102823.0;;;20.23;26.97
64019;BME280;66942;52.138;5.216;2023-04-19T08:13:11;102817.0;;;20.34;26.71
64019;BME280;66942;52.138;5.216;2023-04-19T08:14:47;102815.00000000001;;;20.64;28.32
64019;BME280;66942;52.138;5.216;2023-04-19T08:18:00;102821.0;;;20.2;26.02
64019;BME280;66942;52.138;5.216;2023-04-19T08:19:36;102820.0;;;20.2;26.85
64019;BME280;66942;52.138;5.216;2023-04-19T08:21:12;102829.0;;;20.28;25.75
64019;BME280;66942;52.138;5.216;2023-04-19T08:22:48;102819.0;;;19.57;26.62
64019;BME280;66942;52.138;5.216;2023-04-19T08:26:00;102816.00000000001;;;19.7;26.95
64019;BME280;66942;52.138;5.216;2023-04-19T08:27:36;102826.0;;;19.93;27.3
64019;BME280;66942;52.138;5.216;2023-04-19T08:29:12;102808.0;;;19.27;25.76
64019;BME280;66942;52.138;5.216;2023-04-19T08:32:25;102805.0;;;19.52;25.38
64019;BME280;66942;52.138;5.216;2023-04-19T08:34:01;102807.0;;;19.54;26.2
64019;BME280;66942;52.138;5.216;2023-04-19T08:35:37;102817.0;;;19.09;25.3
64019;BME280;66942;52.138;5.216;2023-04-19T08:38:50;102806.0;;;18.95;25.4
64019;BME280;66942;52.138;5.216;2023-04-19T08:40:27;102811.99999999999;;;19.61;25.97
64019;BME280;66942;52.138;5.216;2023-04-19T08:42:06;102808.0;;;19.63;25.43
64019;BME280;66942;52.138;5.216;2023-04-19T08:43:46;102809.99999999999;;;19.57;26.87
64019;BME280;66942;52.138;5.216;2023-04-19T08:47:02;102820.0;;;19.27;25.56
64019;BME280;66942;52.138;5.216;2023-04-19T08:48:39;102801.0;;;18.38;26.55
64019;BME280;66942;52.138;5.216;2023-04-19T08:50:19;102796.0;;;19.13;26.06
64019;BME280;66942;52.138;5.216;2023-04-19T08:53:33;102804.0;;;18.86;26.67
64019;BME280;66942;52.138;5.216;2023-04-19T08:55:09;102805.0;;;19.04;26.67
64019;BME280;66942;52.138;5.216;2023-04-19T08:56:46;102799.0;;;18.98;26.34
64019;BME280;66942;52.138;5.216;2023-04-19T08:58:22;102807.0;;;18.72;28.06
64019;BME280;66942;52.138;5.216;2023-04-19T09:01:35;102807.0;;;18.84;28.57
64019;BME280;66942;52.138;5.216;2023-04-19T09:03:11;102801.0;;;19.05;28.37
64019;BME280;66942;52.138;5.216;2023-04-19T09:04:47;102802.0;;;18.86;27.69
64019;BME280;66942;52.138;5.216;2023-04-19T09:08:20;102797.0;;;19.0;25.96
64019;BME280;66942;52.138;5.216;2023-04-19T09:10:04;102799.0;;;19.41;25.85
64019;BME280;66942;52.138;5.216;2023-04-19T09:11:41;102795.0;;;18.68;25.78
64019;BME280;66942;52.138;5.216;2023-04-19T09:13:17;102792.0;;;19.11;25.57
64019;BME280;66942;52.138;5.216;2023-04-19T09:16:29;102801.0;;;19.16;26.24
64019;BME280;66942;52.138;5.216;2023-04-19T09:18:07;102795.0;;;19.43;26.37
64019;BME280;66942;52.138;5.216;2023-04-19T09:19:45;102783.99999999999;;;19.86;25.95
64019;BME280;66942;52.138;5.216;2023-04-19T09:21:29;102786.99999999999;;;20.0;25.95
64019;BME280;66942;52.138;5.216;2023-04-19T09:24:45;102784.99999999999;;;19.91;24.37
64019;BME280;66942;52.138;5.216;2023-04-19T09:26:21;102782.0;;;20.09;23.89
64019;BME280;66942;52.138;5.216;2023-04-19T09:28:07;102784.99999999999;;;19.79;25.36
64019;BME280;66942;52.138;5.216;2023-04-19T09:29:51;102781.0;;;19.77;25.16
64019;BME280;66942;52.138;5.216;2023-04-19T09:33:07;102780.0;;;19.68;24.94
64019;BME280;66942;52.138;5.216;2023-04-19T09:34:50;102779.0;;;19.89;25.15
64019;BME280;66942;52.138;5.216;2023-04-19T09:36:27;102773.0;;;19.81;25.37
64019;BME280;66942;52.138;5.216;2023-04-19T09:38:04;102772.0;;;20.36;24.62
64019;BME280;66942;52.138;5.216;2023-04-19T09:41:17;102776.0;;;20.02;24.13
64019;BME280;66942;52.138;5.216;2023-04-19T09:42:53;102777.0;;;19.87;23.8
64019;BME280;66942;52.138;5.216;2023-04-19T09:44:29;102773.0;;;19.59;23.87
64019;BME280;66942;52.138;5.216;2023-04-19T09:47:41;102771.0;;;19.55;23.87
64019;BME280;66942;52.138;5.216;2023-04-19T09:49:19;102781.0;;;19.62;25.11
64019;BME280;66942;52.138;5.216;2023-04-19T09:50:58;102777.0;;;20.47;26.07
64019;BME280;66942;52.138;5.216;2023-04-19T09:54:13;102773.0;;;20.23;24.82
64019;BME280;66942;52.138;5.216;2023-04-19T09:55:51;102777.0;;;19.82;23.28
64019;BME280;66942;52.138;5.216;2023-04-19T09:57:27;102777.0;;;20.09;24.42
64019;BME280;66942;52.138;5.216;2023-04-19T09:59:03;102780.0;;;20.65;26.1
64019;BME280;66942;52.138;5.216;2023-04-19T10:02:21;102780.0;;;20.98;23.64
64019;BME280;66942;52.138;5.216;2023-04-19T10:03:58;102767.0;;;20.39;23.23
64019;BME280;66942;52.138;5.216;2023-04-19T10:05:35;102772.0;;;19.84;23.92
64019;BME280;66942;52.138;5.216;2023-04-19T10:08:52;102777.0;;;20.39;24.36
64019;BME280;66942;52.138;5.216;2023-04-19T10:10:30;102781.0;;;20.12;25.64
64019;BME280;66942;52.138;5.216;2023-04-19T10:12:07;102773.0;;;20.64;25.17
64019;BME280;66942;52.138;5.216;2023-04-19T10:13:44;102784.99999999999;;;20.77;24.71
64019;BME280;66942;52.138;5.216;2023-04-19T10:17:00;102775.0;;;20.05;24.79
64019;BME280;66942;52.138;5.216;2023-04-19T10:18:37;102767.0;;;20.51;25.01
64019;BME280;66942;52.138;5.216;2023-04-19T10:20:17;102767.0;;;20.41;24.23
64019;BME280;66942;52.138;5.216;2023-04-19T10:23:33;102765.00000000001;;;20.23;23.91
64019;BME280;66942;52.138;5.216;2023-04-19T10:25:11;102751.0;;;20.75;24.21
64019;BME280;66942;52.138;5.216;2023-04-19T10:27:23;102751.0;;;20.59;24.75
64019;BME280;66942;52.138;5.216;2023-04-19T10:29:00;102761.99999999999;;;20.39;25.46
64019;BME280;66942;52.138;5.216;2023-04-19T10:30:51;102758.99999999999;;;20.51;26.51
64019;BME280;66942;52.138;5.216;2023-04-19T10:32:28;102757.0;;;20.76;25.13
64019;BME280;66942;52.138;5.216;2023-04-19T10:35:49;102752.0;;;20.62;24.06
64019;BME280;66942;52.138;5.216;2023-04-19T10:37:25;102742.0;;;20.52;23.54
64019;BME280;66942;52.138;5.216;2023-04-19T10:39:01;102752.0;;;20.94;27.54
64019;BME280;66942;52.138;5.216;2023-04-19T10:43:37;102761.99999999999;;;21.0;25.28